| time (UTC) | temp C | wind direction | speed KPH | gust KPH | rain 1hr cm | rain 24hr cm | rain mn cm | humidity % | barometer mb |
| 20260510143216 | 13 | 45 | 9.7 | 14.5 | 0.00 | 0.00 | 0.00 | 57 | 1021.5 |
| 20260510142216 | 13 | 45 | 9.7 | 16.1 | 0.00 | 0.00 | 0.00 | 56 | 1021.4 |
| 20260510141216 | 14 | 45 | 6.4 | 9.7 | 0.00 | 0.00 | 0.00 | 56 | 1021.4 |
| 20260510140216 | 14 | 45 | 12.9 | 16.1 | 0.00 | 0.00 | 0.00 | 57 | 1021.4 |
| 20260510135216 | 13 | 45 | 16.1 | 22.5 | 0.00 | 0.00 | 0.00 | 56 | 1021.2 |
| 20260510134216 | 13 | 45 | 14.5 | 17.7 | 0.00 | 0.00 | 0.00 | 59 | 1021.2 |
| 20260510133216 | 13 | 45 | 11.3 | 19.3 | 0.00 | 0.00 | 0.00 | 61 | 1021.0 |
| 20260510132216 | 13 | 68 | 12.9 | 19.3 | 0.00 | 0.00 | 0.00 | 61 | 1021.0 |
| 20260510131216 | 13 | 45 | 9.7 | 17.7 | 0.00 | 0.00 | 0.00 | 62 | 1020.6 |
| 20260510130217 | 13 | 45 | 11.3 | 14.5 | 0.00 | 0.00 | 0.00 | 64 | 1020.3 |
| 20260510125216 | 13 | 45 | 16.1 | 20.9 | 0.00 | 0.00 | 0.00 | 64 | 1020.0 |
| 20260510124216 | 13 | 45 | 17.7 | 20.9 | 0.00 | 0.00 | 0.00 | 66 | 1019.5 |
| 20260510123256 | 13 | 45 | 16.1 | 22.5 | 0.00 | 0.00 | 0.00 | 67 | 1019.6 |
| 20260510122216 | 14 | 23 | 14.5 | 19.3 | 0.00 | 0.00 | 0.00 | 63 | 1019.2 |
| 20260510121216 | 14 | 45 | 16.1 | 20.9 | 0.00 | 0.00 | 0.00 | 63 | 1018.7 |
| 20260510120216 | 13 | 45 | 17.7 | 20.9 | 0.00 | 0.00 | 0.00 | 64 | 1018.1 |
| 20260510115216 | 13 | 45 | 22.5 | 27.4 | 0.00 | 0.00 | 0.00 | 65 | 1017.8 |
| 20260510114216 | 13 | 45 | 19.3 | 24.1 | 0.00 | 0.00 | 0.00 | 66 | 1017.5 |
| 20260510113216 | 14 | 45 | 16.1 | 22.5 | 0.00 | 0.00 | 0.00 | 66 | 1017.1 |
| 20260510112256 | 14 | 45 | 20.9 | 33.8 | 0.00 | 0.00 | 0.00 | 66 | 1017.0 |
| 20260510111216 | 14 | 23 | 17.7 | 25.7 | 0.00 | 0.00 | 0.00 | 66 | 1017.0 |
| 20260510110236 | 14 | 23 | 14.5 | 20.9 | 0.00 | 0.00 | 0.00 | 67 | 1016.9 |
| 20260510105216 | 14 | 23 | 22.5 | 29.0 | 0.00 | 0.00 | 0.00 | 67 | 1016.9 |
| 20260510104216 | 14 | 45 | 16.1 | 24.1 | 0.00 | 0.00 | 0.00 | 67 | 1017.0 |
| 20260510103216 | 14 | 23 | 22.5 | 30.6 | 0.00 | 0.00 | 0.00 | 67 | 1016.8 |
| 20260510102236 | 14 | 45 | 20.9 | 27.4 | 0.00 | 0.00 | 0.00 | 67 | 1016.7 |
| 20260510101216 | 15 | 45 | 14.5 | 19.3 | 0.00 | 0.00 | 0.00 | 66 | 1016.3 |
| 20260510100216 | 15 | 23 | 14.5 | 19.3 | 0.00 | 0.00 | 0.00 | 66 | 1016.2 |
| 20260510095216 | 15 | 45 | 19.3 | 25.7 | 0.00 | 0.00 | 0.00 | 66 | 1016.1 |
| 20260510094236 | 15 | 23 | 16.1 | 20.9 | 0.00 | 0.00 | 0.00 | 66 | 1015.7 |
| 20260510093236 | 15 | 23 | 19.3 | 24.1 | 0.00 | 0.00 | 0.00 | 66 | 1015.6 |
| 20260510092216 | 15 | 23 | 16.1 | 25.7 | 0.00 | 0.00 | 0.00 | 66 | 1015.6 |
| 20260510091256 | 15 | 45 | 17.7 | 22.5 | 0.00 | 0.00 | 0.00 | 66 | 1015.3 |
| 20260510090216 | 15 | 45 | 14.5 | 20.9 | 0.00 | 0.00 | 0.00 | 66 | 1015.6 |
| 20260510085216 | 15 | 23 | 16.1 | 20.9 | 0.00 | 0.00 | 0.00 | 66 | 1015.5 |
| 20260510084256 | 15 | 45 | 16.1 | 24.1 | 0.00 | 0.00 | 0.00 | 67 | 1015.4 |
| 20260510083216 | 16 | 45 | 17.7 | 24.1 | 0.00 | 0.00 | 0.00 | 66 | 1015.5 |
| 20260510082216 | 16 | 23 | 12.9 | 17.7 | 0.00 | 0.00 | 0.00 | 65 | 1015.3 |
| 20260510081216 | 16 | 23 | 16.1 | 24.1 | 0.00 | 0.00 | 0.00 | 66 | 1015.2 |
| 20260510080216 | 16 | 23 | 19.3 | 25.7 | 0.00 | 0.00 | 0.00 | 66 | 1015.1 |
| 20260510075215 | 16 | 23 | 17.7 | 24.1 | 0.00 | 0.00 | 0.00 | 64 | 1015.1 |
| 20260510074236 | 16 | 23 | 17.7 | 24.1 | 0.00 | 0.00 | 0.00 | 65 | 1015.1 |
| 20260510073215 | 16 | 23 | 11.3 | 17.7 | 0.00 | 0.00 | 0.00 | 65 | 1014.8 |
| 20260510072216 | 16 | 0 | 11.3 | 16.1 | 0.00 | 0.00 | 0.00 | 66 | 1014.8 |
| 20260510071216 | 16 | 23 | 14.5 | 20.9 | 0.00 | 0.00 | 0.00 | 67 | 1014.4 |
| 20260510070216 | 16 | 23 | 9.7 | 14.5 | 0.00 | 0.00 | 0.00 | 67 | 1014.5 |
| 20260510065216 | 16 | 23 | 11.3 | 14.5 | 0.00 | 0.00 | 0.00 | 66 | 1014.4 |
| 20260510064215 | 16 | 23 | 9.7 | 16.1 | 0.00 | 0.00 | 0.00 | 66 | 1014.3 |
| 20260510063216 | 17 | 23 | 9.7 | 16.1 | 0.00 | 0.00 | 0.00 | 64 | 1014.3 |
| 20260510062216 | 17 | 45 | 9.7 | 14.5 | 0.00 | 0.00 | 0.00 | 63 | 1014.3 |
| 20260510061215 | 18 | 23 | 9.7 | 14.5 | 0.00 | 0.00 | 0.00 | 62 | 1014.1 |
| 20260510060215 | 18 | 23 | 8.0 | 14.5 | 0.00 | 0.00 | 0.00 | 61 | 1013.9 |
| 20260510055215 | 18 | 45 | 11.3 | 16.1 | 0.00 | 0.00 | 0.00 | 61 | 1013.6 |
| 20260510054215 | 18 | 68 | 9.7 | 16.1 | 0.00 | 0.00 | 0.00 | 61 | 1013.2 |
| 20260510053215 | 17 | 45 | 9.7 | 11.3 | 0.00 | 0.00 | 0.00 | 62 | 1013.2 |
| 20260510052216 | 17 | 45 | 8.0 | 12.9 | 0.00 | 0.00 | 0.00 | 62 | 1013.3 |
| 20260510051236 | 18 | 23 | 8.0 | 12.9 | 0.00 | 0.00 | 0.00 | 62 | 1013.5 |
| 20260510050215 | 18 | 45 | 8.0 | 12.9 | 0.00 | 0.00 | 0.00 | 62 | 1013.3 |
| 20260510045216 | 18 | 45 | 9.7 | 16.1 | 0.00 | 0.00 | 0.00 | 62 | 1013.2 |
| 20260510044237 | 18 | 23 | 8.0 | 12.9 | 0.00 | 0.00 | 0.00 | 61 | 1013.3 |
| 20260510043237 | 19 | 45 | 9.7 | 14.5 | 0.00 | 0.00 | 0.00 | 59 | 1013.1 |
| 20260510042217 | 20 | 45 | 9.7 | 16.1 | 0.00 | 0.00 | 0.00 | 58 | 1013.0 |
| 20260510041217 | 20 | 68 | 9.7 | 14.5 | 0.00 | 0.00 | 0.00 | 57 | 1013.0 |
| 20260510040216 | 20 | 45 | 8.0 | 11.3 | 0.00 | 0.00 | 0.00 | 56 | 1013.0 |
| 20260510035216 | 20 | 68 | 9.7 | 14.5 | 0.00 | 0.00 | 0.00 | 56 | 1013.0 |
| 20260510034216 | 20 | 45 | 11.3 | 16.1 | 0.00 | 0.00 | 0.00 | 56 | 1013.1 |
| 20260510033216 | 20 | 23 | 4.8 | 6.4 | 0.00 | 0.00 | 0.00 | 56 | 1013.1 |
| 20260510032216 | 20 | 45 | 4.8 | 8.0 | 0.00 | 0.00 | 0.00 | 55 | 1012.7 |
| 20260510031236 | 21 | 203 | 1.6 | 1.6 | 0.00 | 0.00 | 0.00 | 55 | 1012.8 |
| 20260510030216 | 21 | 113 | 4.8 | 6.4 | 0.00 | 0.00 | 0.00 | 53 | 1012.4 |
| 20260510025216 | 21 | 90 | 12.9 | 22.5 | 0.00 | 0.00 | 0.00 | 53 | 1011.8 |
| 20260510024216 | 22 | 68 | 19.3 | 25.7 | 0.00 | 0.00 | 0.00 | 52 | 1011.6 |
| 20260510023236 | 22 | 90 | 17.7 | 24.1 | 0.00 | 0.00 | 0.00 | 51 | 1010.8 |
| 20260510022216 | 22 | 68 | 25.7 | 38.6 | 0.00 | 0.00 | 0.00 | 50 | 1010.2 |
| 20260510021236 | 23 | 68 | 12.9 | 22.5 | 0.00 | 0.00 | 0.00 | 49 | 1011.6 |
| 20260510020216 | 23 | 23 | 11.3 | 17.7 | 0.00 | 0.00 | 0.00 | 48 | 1011.6 |
| 20260510015216 | 24 | 68 | 3.2 | 6.4 | 0.00 | 0.00 | 0.00 | 46 | 1011.8 |
| 20260510014217 | 25 | 45 | 11.3 | 16.1 | 0.00 | 0.00 | 0.00 | 44 | 1011.8 |
| 20260510013337 | 25 | 315 | 12.9 | 17.7 | 0.00 | 0.00 | 0.00 | 42 | 1011.6 |
| 20260510012216 | 24 | 23 | 16.1 | 19.3 | 0.00 | 0.00 | 0.00 | 42 | 1011.0 |
| 20260510011216 | 23 | 315 | 6.4 | 8.0 | 0.00 | 0.00 | 0.00 | 43 | 1010.3 |
| 20260510010216 | 24 | 315 | 8.0 | 9.7 | 0.00 | 0.00 | 0.00 | 45 | 1009.7 |
| 20260510005216 | 25 | 158 | 1.6 | 3.2 | 0.00 | 0.00 | 0.00 | 38 | 1008.9 |
| 20260510004216 | 25 | 135 | 4.8 | 9.7 | 0.00 | 0.00 | 0.00 | 38 | 1008.5 |
| 20260510003216 | 26 | 113 | 4.8 | 6.4 | 0.00 | 0.00 | 0.00 | 39 | 1008.1 |
| 20260510002216 | 26 | 0.0 | 1.6 | 0.00 | 0.00 | 0.00 | 37 | 1007.9 | |
| 20260510001236 | 27 | 0.0 | 0.0 | 0.00 | 0.00 | 0.00 | 43 | 1008.0 | |
| 20260510000236 | 27 | 113 | 1.6 | 1.6 | 0.00 | 0.00 | 0.00 | 46 | 1008.1 |
| 20260509235216 | 27 | 113 | 3.2 | 3.2 | 0.00 | 0.00 | 0.00 | 34 | 1007.9 |
| 20260509234216 | 27 | 180 | 3.2 | 6.4 | 0.00 | 0.00 | 0.00 | 37 | 1008.1 |
| 20260509233216 | 27 | 180 | 6.4 | 9.7 | 0.00 | 0.00 | 0.00 | 34 | 1008.2 |
| 20260509232216 | 28 | 180 | 1.6 | 3.2 | 0.00 | 0.00 | 0.00 | 39 | 1008.3 |
| 20260509231216 | 28 | 293 | 3.2 | 4.8 | 0.00 | 0.00 | 0.00 | 35 | 1008.5 |
| 20260509230216 | 28 | 180 | 4.8 | 8.0 | 0.00 | 0.00 | 0.00 | 32 | 1008.5 |
| 20260509225216 | 28 | 293 | 1.6 | 3.2 | 0.00 | 0.00 | 0.00 | 27 | 1008.5 |
| 20260509224216 | 29 | 0.0 | 1.6 | 0.00 | 0.00 | 0.00 | 31 | 1008.4 | |
| 20260509223236 | 29 | 293 | 3.2 | 4.8 | 0.00 | 0.00 | 0.00 | 33 | 1008.3 |
| 20260509222216 | 30 | 158 | 6.4 | 9.7 | 0.00 | 0.00 | 0.00 | 29 | 1008.2 |
| 20260509221216 | 30 | 135 | 9.7 | 16.1 | 0.00 | 0.00 | 0.00 | 30 | 1008.2 |
| 20260509220216 | 30 | 248 | 8.0 | 12.9 | 0.00 | 0.00 | 0.00 | 32 | 1008.2 |
| 20260509215216 | 30 | 158 | 3.2 | 6.4 | 0.00 | 0.00 | 0.00 | 33 | 1008.4 |
| 20260509214216 | 30 | 270 | 4.8 | 8.0 | 0.00 | 0.00 | 0.00 | 32 | 1008.3 |
| 20260509213216 | 30 | 90 | 8.0 | 11.3 | 0.00 | 0.00 | 0.00 | 31 | 1008.3 |
| 20260509212236 | 29 | 203 | 4.8 | 6.4 | 0.00 | 0.00 | 0.00 | 33 | 1008.4 |
| 20260509211216 | 29 | 180 | 11.3 | 14.5 | 0.00 | 0.00 | 0.00 | 31 | 1008.5 |
| 20260509210216 | 28 | 203 | 8.0 | 11.3 | 0.00 | 0.00 | 0.00 | 31 | 1008.5 |
| 20260509205216 | 28 | 225 | 9.7 | 12.9 | 0.00 | 0.00 | 0.00 | 31 | 1008.7 |
| 20260509204216 | 29 | 203 | 16.1 | 24.1 | 0.00 | 0.00 | 0.00 | 31 | 1008.8 |
| 20260509203216 | 29 | 203 | 14.5 | 22.5 | 0.00 | 0.00 | 0.00 | 31 | 1008.8 |
| 20260509202216 | 29 | 180 | 16.1 | 20.9 | 0.00 | 0.00 | 0.00 | 31 | 1008.8 |
| 20260509201216 | 28 | 270 | 9.7 | 11.3 | 0.00 | 0.00 | 0.00 | 32 | 1009.0 |
| 20260509200236 | 28 | 270 | 11.3 | 16.1 | 0.00 | 0.00 | 0.00 | 32 | 1009.1 |
| 20260509195236 | 28 | 203 | 11.3 | 17.7 | 0.00 | 0.00 | 0.00 | 30 | 1009.2 |
| 20260509194215 | 28 | 0.0 | 1.6 | 0.00 | 0.00 | 0.00 | 36 | 1009.2 | |
| 20260509193215 | 27 | 248 | 12.9 | 14.5 | 0.00 | 0.00 | 0.00 | 34 | 1009.4 |
| 20260509192215 | 28 | 180 | 9.7 | 17.7 | 0.00 | 0.00 | 0.00 | 36 | 1009.4 |
| 20260509191256 | 27 | 225 | 8.0 | 11.3 | 0.00 | 0.00 | 0.00 | 37 | 1009.4 |
| 20260509190236 | 27 | 270 | 9.7 | 12.9 | 0.00 | 0.00 | 0.00 | 36 | 1009.5 |
| 20260509185215 | 27 | 248 | 9.7 | 12.9 | 0.00 | 0.00 | 0.00 | 41 | 1009.8 |
| 20260509184216 | 27 | 248 | 6.4 | 11.3 | 0.00 | 0.00 | 0.00 | 34 | 1009.7 |
| 20260509183236 | 28 | 248 | 9.7 | 17.7 | 0.00 | 0.00 | 0.00 | 37 | 1010.0 |
| 20260509182216 | 27 | 225 | 14.5 | 20.9 | 0.00 | 0.00 | 0.00 | 37 | 1010.1 |
| 20260509181216 | 27 | 248 | 19.3 | 25.7 | 0.00 | 0.00 | 0.00 | 38 | 1010.3 |
| 20260509180216 | 27 | 270 | 24.1 | 30.6 | 0.00 | 0.00 | 0.00 | 35 | 1010.4 |
| 20260509175256 | 27 | 248 | 14.5 | 22.5 | 0.00 | 0.00 | 0.00 | 41 | 1010.7 |
| 20260509174215 | 27 | 225 | 14.5 | 17.7 | 0.00 | 0.00 | 0.00 | 43 | 1010.8 |
| 20260509173215 | 26 | 270 | 14.5 | 17.7 | 0.00 | 0.00 | 0.00 | 44 | 1011.1 |
| 20260509172216 | 26 | 225 | 14.5 | 19.3 | 0.00 | 0.00 | 0.00 | 44 | 1011.1 |
| 20260509171215 | 26 | 225 | 17.7 | 25.7 | 0.00 | 0.00 | 0.00 | 42 | 1011.0 |
| 20260509170218 | 26 | 248 | 17.7 | 24.1 | 0.00 | 0.00 | 0.00 | 44 | 1011.2 |
| 20260509165215 | 25 | 248 | 14.5 | 20.9 | 0.00 | 0.00 | 0.00 | 47 | 1011.3 |
| 20260509164215 | 25 | 248 | 20.9 | 22.5 | 0.00 | 0.00 | 0.00 | 43 | 1011.2 |
| 20260509163235 | 25 | 248 | 19.3 | 25.7 | 0.00 | 0.00 | 0.00 | 44 | 1011.3 |
| 20260509162215 | 24 | 248 | 22.5 | 25.7 | 0.00 | 0.00 | 0.00 | 47 | 1011.2 |
| 20260509161215 | 24 | 225 | 14.5 | 20.9 | 0.00 | 0.00 | 0.00 | 48 | 1011.0 |
| 20260509160215 | 24 | 248 | 17.7 | 20.9 | 0.00 | 0.00 | 0.00 | 47 | 1011.0 |
| 20260509155235 | 24 | 248 | 11.3 | 17.7 | 0.00 | 0.00 | 0.00 | 50 | 1011.0 |
| 20260509154215 | 24 | 248 | 14.5 | 19.3 | 0.00 | 0.00 | 0.00 | 51 | 1010.9 |
| 20260509153215 | 23 | 225 | 17.7 | 27.4 | 0.00 | 0.00 | 0.00 | 50 | 1011.0 |
| 20260509152215 | 23 | 248 | 16.1 | 20.9 | 0.00 | 0.00 | 0.00 | 51 | 1011.1 |
| 20260509151215 | 23 | 248 | 16.1 | 24.1 | 0.00 | 0.00 | 0.00 | 53 | 1011.2 |
| 20260509150215 | 22 | 203 | 11.3 | 16.1 | 0.00 | 0.00 | 0.00 | 53 | 1011.0 |
| 20260509145215 | 22 | 225 | 16.1 | 22.5 | 0.00 | 0.00 | 0.00 | 54 | 1011.1 |
| 20260509144215 | 21 | 203 | 11.3 | 14.5 | 0.00 | 0.00 | 0.00 | 56 | 1010.8 |